Time;durP1;ratioP1;P1;durP2;ratioP2;P2;SDS_P1;SDS_P2;PMS_P1;PMS_P2;Temp;Humidity;BMP_temperature;BMP_pressure;BME280_temperature;BME280_humidity;BME280_pressure;Samples;Min_cycle;Max_cycle;Signal;HPM_P1;HPM_P2
2022/01/10 00:00:31;;;;;;;2.57;1.10;;;;;;;-0.24;92.92;93134.25;5009991;28;20056;-60
2022/01/10 00:02:59;;;;;;;2.42;0.95;;;;;;;-0.30;93.40;93130.34;5010214;28;20111;-62
2022/01/10 00:05:26;;;;;;;3.20;1.20;;;;;;;-0.45;93.07;93134.75;5009738;28;20076;-62
2022/01/10 00:07:53;;;;;;;2.90;1.05;;;;;;;-0.50;93.36;93137.78;5009933;28;20050;-61
2022/01/10 00:10:20;;;;;;;3.55;1.20;;;;;;;-1.01;95.17;93136.28;5010098;28;20040;-61
2022/01/10 00:12:47;;;;;;;4.10;1.43;;;;;;;-1.05;95.67;93134.66;5009548;28;20156;-61
2022/01/10 00:15:16;;;;;;;2.97;1.20;;;;;;;-0.67;94.87;93135.59;5024575;28;20116;-61
2022/01/10 00:17:44;;;;;;;3.63;1.63;;;;;;;-0.62;94.85;93146.84;5009380;28;20042;-61
2022/01/10 00:20:15;;;;;;;3.75;1.50;;;;;;;-0.53;93.74;93138.50;5009687;28;20061;-61
2022/01/10 00:22:47;;;;;;;3.70;1.75;;;;;;;-0.35;93.20;93141.44;5009515;28;20060;-61
2022/01/10 00:25:16;;;;;;;4.53;2.03;;;;;;;-0.49;92.48;93146.63;5009553;28;20046;-61
2022/01/10 00:27:44;;;;;;;5.25;1.38;;;;;;;-0.54;93.36;93146.94;5009343;28;20184;-60
2022/01/10 00:30:11;;;;;;;4.35;1.20;;;;;;;-0.52;93.01;93141.97;5009376;28;20054;-61
2022/01/10 00:32:41;;;;;;;2.80;1.13;;;;;;;-0.55;92.37;93150.78;5009469;28;20111;-61
2022/01/10 00:35:09;;;;;;;3.70;1.30;;;;;;;-0.52;92.55;93148.16;5009562;28;20050;-61
2022/01/10 00:37:36;;;;;;;3.73;1.77;;;;;;;-0.47;92.49;93144.34;5007907;28;20119;-61
2022/01/10 00:40:05;;;;;;;5.13;2.33;;;;;;;-0.84;93.67;93147.69;5009150;28;20034;-61
2022/01/10 00:42:32;;;;;;;4.90;2.42;;;;;;;-0.67;93.97;93143.69;5008797;28;20050;-60
2022/01/10 00:45:02;;;;;;;5.25;2.50;;;;;;;-0.55;92.74;93151.56;5009176;28;20046;-61
2022/01/10 00:47:29;;;;;;;5.63;2.40;;;;;;;-0.49;92.73;93163.56;5009099;28;20050;-61
2022/01/10 00:49:55;;;;;;;4.83;2.40;;;;;;;-0.55;92.07;93156.16;5009220;28;20037;-61
2022/01/10 00:52:22;;;;;;;4.88;2.25;;;;;;;-0.59;92.44;93163.44;5024205;28;20050;-61
2022/01/10 00:54:49;;;;;;;5.38;2.13;;;;;;;-0.63;91.43;93166.06;5008207;28;20839;-60
2022/01/10 00:57:16;;;;;;;4.65;2.10;;;;;;;-0.70;91.50;93174.06;5007992;28;20482;-61
2022/01/10 00:59:42;;;;;;;5.55;2.20;;;;;;;-0.78;91.17;93164.31;5008872;28;20076;-61
2022/01/10 01:02:09;;;;;;;8.50;3.60;;;;;;;-0.87;90.79;93172.63;5009145;28;20046;-61
2022/01/10 01:04:36;;;;;;;10.32;5.07;;;;;;;-0.99;90.64;93178.97;5009014;28;20045;-60
2022/01/10 01:07:03;;;;;;;7.15;3.40;;;;;;;-1.25;89.92;93182.41;5008793;28;20040;-61
2022/01/10 01:09:31;;;;;;;5.32;2.45;;;;;;;-1.39;89.67;93185.63;5008588;28;20044;-61
2022/01/10 01:12:15;;;;;;;5.57;2.05;;;;;;;-1.47;90.02;93189.31;5008796;28;20046;-61
2022/01/10 01:25:05;;;;;;;9.27;3.83;;;;;;;-1.67;91.72;93212.78;5008084;28;20045;-61
2022/01/10 01:27:32;;;;;;;11.47;4.40;;;;;;;-1.65;91.89;93211.31;5008710;28;20079;-60
2022/01/10 01:29:59;;;;;;;9.70;4.05;;;;;;;-1.62;91.45;93210.59;5007630;28;20048;-61
2022/01/10 01:32:25;;;;;;;10.23;3.80;;;;;;;-1.66;91.37;93209.75;5008662;28;20042;-59
2022/01/10 01:34:56;;;;;;;8.57;3.67;;;;;;;-1.65;92.00;93219.38;5009014;28;20409;-60
2022/01/10 01:37:23;;;;;;;7.60;3.03;;;;;;;-1.61;92.17;93222.91;5007824;28;20050;-61
2022/01/10 01:39:50;;;;;;;8.33;3.47;;;;;;;-1.53;91.93;93223.84;5023158;28;20354;-61
2022/01/10 01:42:31;;;;;;;12.23;4.43;;;;;;;-1.57;91.74;93238.34;5008614;28;20056;-61
2022/01/10 01:44:59;;;;;;;17.17;5.90;;;;;;;-1.61;91.92;93240.94;5007691;28;20605;-61
2022/01/10 01:47:26;;;;;;;15.15;4.90;;;;;;;-1.64;92.46;93234.38;5023796;28;20049;-59
2022/01/10 01:49:53;;;;;;;15.30;5.90;;;;;;;-1.59;92.90;93248.69;5008859;28;20049;-61
2022/01/10 01:52:19;;;;;;;19.43;7.10;;;;;;;-1.50;92.98;93243.88;5007248;28;20052;-61
2022/01/10 01:54:46;;;;;;;16.02;5.45;;;;;;;-1.43;92.93;93241.28;5008219;28;20050;-61
2022/01/10 01:57:13;;;;;;;10.68;3.97;;;;;;;-1.51;91.70;93245.78;5008699;28;20056;-61
2022/01/10 01:59:40;;;;;;;7.75;3.45;;;;;;;-1.56;91.04;93245.28;5039654;28;20418;-60
2022/01/10 02:02:06;;;;;;;74.28;7.53;;;;;;;-1.72;92.66;93248.06;5023557;28;20049;-61
2022/01/10 02:04:33;;;;;;;47.70;5.63;;;;;;;-1.81;93.10;93243.66;5009942;28;20095;-60
2022/01/10 02:07:00;;;;;;;48.55;6.05;;;;;;;-1.77;92.90;93251.81;5010597;28;20037;-61
2022/01/10 02:09:27;;;;;;;35.65;5.78;;;;;;;-1.83;93.28;93269.38;5012202;28;20053;-61
2022/01/10 02:11:54;;;;;;;85.88;6.55;;;;;;;-1.76;93.85;93261.44;5012392;28;20042;-60
2022/01/10 02:14:20;;;;;;;206.30;11.60;;;;;;;-2.10;95.26;93271.84;5026808;28;20054;-61
2022/01/10 02:16:54;;;;;;;257.07;11.43;;;;;;;-1.97;95.52;93272.53;5026800;28;20387;-61
2022/01/10 02:19:25;;;;;;;95.47;8.23;;;;;;;-1.92;96.05;93277.63;5011889;28;20046;-61
2022/01/10 02:21:52;;;;;;;132.27;8.65;;;;;;;-1.81;96.43;93285.94;5011040;28;20482;-60
2022/01/10 02:24:20;;;;;;;289.35;10.90;;;;;;;-1.79;96.67;93288.25;5011806;28;20054;-61
2022/01/10 02:26:48;;;;;;;213.32;10.27;;;;;;;-1.97;96.07;93285.97;5026270;28;20046;-60
2022/01/10 02:29:16;;;;;;;234.67;12.20;;;;;;;-2.06;96.14;93290.75;5011735;28;20041;-61
2022/01/10 02:31:44;;;;;;;171.40;8.27;;;;;;;-1.91;96.73;93295.31;5011228;28;20046;-60
2022/01/10 02:34:15;;;;;;;242.25;9.52;;;;;;;-1.90;96.35;93293.41;5011734;28;20050;-61
2022/01/10 02:36:42;;;;;;;42.65;5.85;;;;;;;-1.84;96.17;93295.47;5011427;28;20126;-61
2022/01/10 02:39:11;;;;;;;217.07;11.30;;;;;;;-1.94;96.05;93293.31;5011490;28;20093;-61
2022/01/10 02:41:42;;;;;;;96.73;7.33;;;;;;;-2.02;96.24;93297.00;5010228;28;20402;-60
2022/01/10 02:44:13;;;;;;;74.78;6.70;;;;;;;-1.94;96.15;93303.31;5011434;28;20493;-61
2022/01/10 02:46:41;;;;;;;43.80;6.35;;;;;;;-1.95;95.21;93301.72;5011177;28;20042;-60
2022/01/10 02:49:10;;;;;;;22.92;6.70;;;;;;;-1.92;95.37;93307.19;5011380;28;20049;-61
2022/01/10 02:51:38;;;;;;;26.63;6.18;;;;;;;-1.82;94.76;93311.25;5006146;28;20045;-60
2022/01/10 02:54:05;;;;;;;28.93;5.37;;;;;;;-1.80;94.85;93309.00;5011034;28;20056;-61
2022/01/10 02:56:31;;;;;;;42.00;6.65;;;;;;;-1.81;94.30;93316.28;5010670;28;20050;-60
2022/01/10 02:58:58;;;;;;;28.38;5.85;;;;;;;-1.92;94.50;93330.63;5010923;28;20041;-61
2022/01/10 03:01:25;;;;;;;42.45;6.25;;;;;;;-1.94;94.90;93328.28;5009348;28;20056;-60
2022/01/10 03:03:53;;;;;;;42.75;6.40;;;;;;;-1.94;95.03;93330.19;5011369;28;20508;-60
2022/01/10 03:06:20;;;;;;;54.97;7.07;;;;;;;-1.95;95.33;93337.50;5010730;28;20046;-61
2022/01/10 03:08:47;;;;;;;19.85;5.82;;;;;;;-1.85;94.80;93336.94;5010935;28;20052;-60
2022/01/10 03:11:13;;;;;;;18.08;5.45;;;;;;;-1.74;94.61;93337.16;5010861;28;20490;-61
2022/01/10 03:13:40;;;;;;;38.92;6.28;;;;;;;-1.79;93.83;93342.84;5010041;28;20107;-60
2022/01/10 03:16:07;;;;;;;30.90;5.80;;;;;;;-1.82;93.77;93344.28;5010621;28;20042;-61
2022/01/10 03:18:34;;;;;;;154.67;9.27;;;;;;;-1.90;95.03;93341.81;5010739;28;20544;-60
2022/01/10 03:21:00;;;;;;;253.57;13.07;;;;;;;-1.98;95.80;93346.25;5010843;28;20060;-61
2022/01/10 03:23:27;;;;;;;168.00;10.00;;;;;;;-1.77;95.71;93347.84;5008891;28;20049;-60
2022/01/10 03:25:54;;;;;;;55.35;6.97;;;;;;;-1.64;95.42;93355.44;5011051;28;20046;-60
2022/01/10 03:28:21;;;;;;;88.88;8.15;;;;;;;-1.62;94.96;93360.47;5010343;28;20046;-61
2022/01/10 03:30:47;;;;;;;42.63;6.37;;;;;;;-1.64;94.90;93350.06;5009059;28;20057;-61
2022/01/10 03:33:14;;;;;;;50.60;6.93;;;;;;;-1.75;94.94;93362.53;5010581;28;20038;-61
2022/01/10 03:35:41;;;;;;;29.38;6.10;;;;;;;-1.67;95.03;93363.44;5008760;28;20084;-61
2022/01/10 03:38:08;;;;;;;32.70;5.75;;;;;;;-1.59;94.81;93362.44;5010447;28;20491;-61
2022/01/10 03:40:35;;;;;;;28.92;6.22;;;;;;;-1.65;94.30;93375.41;5009881;28;20049;-60
2022/01/10 03:43:02;;;;;;;34.37;6.90;;;;;;;-1.71;94.41;93368.75;5010190;28;20048;-61
2022/01/10 03:45:29;;;;;;;89.68;7.22;;;;;;;-1.71;94.75;93376.03;5008805;28;20059;-60
2022/01/10 03:47:56;;;;;;;80.43;7.53;;;;;;;-1.59;94.72;93377.81;5010320;28;20052;-60
2022/01/10 03:50:22;;;;;;;25.33;6.57;;;;;;;-1.52;94.83;93378.00;5007749;28;20060;-61
2022/01/10 03:52:49;;;;;;;28.65;7.03;;;;;;;-1.49;94.09;93379.97;5038575;28;20044;-61
2022/01/10 03:55:16;;;;;;;38.47;7.23;;;;;;;-1.53;93.82;93385.28;5009882;28;20057;-61
2022/01/10 03:57:43;;;;;;;45.42;8.07;;;;;;;-1.64;94.24;93387.72;5009545;28;20080;-61
2022/01/10 04:00:10;;;;;;;56.20;8.00;;;;;;;-1.63;94.81;93383.91;5009959;28;20046;-61
2022/01/10 04:02:38;;;;;;;36.63;6.80;;;;;;;-1.64;94.50;93392.34;5009557;28;20052;-61
2022/01/10 04:05:06;;;;;;;36.67;7.55;;;;;;;-1.56;94.48;93390.59;5009559;28;20052;-61
2022/01/10 04:07:33;;;;;;;38.50;8.97;;;;;;;-1.49;94.92;93398.78;5009799;28;20046;-60
2022/01/10 04:09:59;;;;;;;251.48;13.85;;;;;;;-2.16;95.51;93399.59;5010031;28;20048;-61
2022/01/10 04:12:26;;;;;;;197.35;11.40;;;;;;;-2.09;96.73;93396.31;5007832;28;20046;-60
2022/01/10 04:14:53;;;;;;;81.20;9.18;;;;;;;-1.90;96.35;93406.34;5009462;28;20080;-61
2022/01/10 04:17:20;;;;;;;63.28;9.75;;;;;;;-1.89;96.28;93405.22;5024592;28;20053;-61
2022/01/10 04:19:47;;;;;;;28.80;7.73;;;;;;;-1.82;95.61;93408.06;5009366;28;20400;-61
2022/01/10 04:22:13;;;;;;;35.90;6.95;;;;;;;-1.79;94.71;93410.09;5009302;28;20072;-61
2022/01/10 04:24:40;;;;;;;27.80;7.40;;;;;;;-1.83;94.32;93414.59;5009100;28;20050;-61
2022/01/10 04:27:07;;;;;;;41.08;11.13;;;;;;;-1.90;94.47;93409.03;5008764;28;20103;-61
2022/01/10 04:29:34;;;;;;;41.97;10.63;;;;;;;-1.79;94.25;93412.78;5009091;28;20060;-61
2022/01/10 04:32:01;;;;;;;45.57;11.90;;;;;;;-1.85;94.04;93411.44;5009637;28;20042;-61
2022/01/10 04:34:27;;;;;;;59.13;16.23;;;;;;;-1.84;94.24;93421.09;5007525;28;20064;-60
2022/01/10 04:36:54;;;;;;;47.78;9.45;;;;;;;-1.77;94.60;93412.41;5009315;28;20042;-61
2022/01/10 04:39:21;;;;;;;42.30;7.85;;;;;;;-1.79;94.94;93417.34;5007813;28;20065;-61
2022/01/10 04:41:48;;;;;;;25.15;7.82;;;;;;;-1.79;95.19;93422.72;5009027;28;20046;-61
2022/01/10 04:44:15;;;;;;;27.20;8.40;;;;;;;-1.71;94.69;93421.75;5008772;28;20048;-61
2022/01/10 04:46:42;;;;;;;26.10;7.80;;;;;;;-1.73;94.45;93426.72;5008729;28;20046;-60
2022/01/10 04:49:17;;;;;;;26.90;8.00;;;;;;;-2.10;95.59;93433.16;5008981;28;20045;-61
2022/01/10 04:51:44;;;;;;;35.58;8.40;;;;;;;-1.85;94.88;93428.38;4995512;28;20069;-60
2022/01/10 04:54:11;;;;;;;27.88;8.10;;;;;;;-2.02;95.39;93434.88;5002378;28;20053;-61
2022/01/10 04:56:39;;;;;;;29.50;8.80;;;;;;;-1.82;95.34;93445.72;5008885;28;20064;-60
2022/01/10 04:59:05;;;;;;;29.70;8.15;;;;;;;-1.68;94.73;93451.44;5024106;28;20042;-60
2022/01/10 05:01:32;;;;;;;33.05;11.80;;;;;;;-1.62;94.07;93451.94;5008694;28;20060;-61
2022/01/10 05:03:59;;;;;;;44.42;12.57;;;;;;;-1.63;93.65;93458.44;5007794;28;20068;-60
2022/01/10 05:06:26;;;;;;;39.45;12.38;;;;;;;-1.60;94.04;93460.47;5007932;28;20048;-60
2022/01/10 05:08:53;;;;;;;40.77;12.23;;;;;;;-1.63;94.13;93470.00;5008964;28;20097;-61
2022/01/10 05:11:20;;;;;;;37.95;11.23;;;;;;;-1.56;93.99;93471.31;5008777;28;20052;-61
2022/01/10 05:13:47;;;;;;;31.67;10.48;;;;;;;-1.62;93.07;93473.47;5008125;28;20076;-61
2022/01/10 05:16:15;;;;;;;34.72;10.60;;;;;;;-1.74;93.58;93477.03;5008846;28;20103;-61
2022/01/10 05:18:42;;;;;;;33.13;9.63;;;;;;;-1.84;93.51;93480.25;5023592;28;20054;-60
2022/01/10 05:21:10;;;;;;;28.60;8.60;;;;;;;-1.97;93.73;93493.03;5008321;28;20049;-62
2022/01/10 05:23:36;;;;;;;31.52;10.13;;;;;;;-1.83;94.20;93489.91;5008271;28;20054;-61
2022/01/10 05:26:03;;;;;;;31.85;9.48;;;;;;;-1.73;94.15;93489.38;5008695;28;20053;-61
2022/01/10 05:28:30;;;;;;;40.28;11.07;;;;;;;-1.72;94.42;93503.59;5007779;28;20045;-60
2022/01/10 05:31:00;;;;;;;36.05;10.05;;;;;;;-1.59;94.07;93499.66;5008786;28;20506;-61
2022/01/10 05:33:27;;;;;;;36.40;10.03;;;;;;;-1.54;94.11;93509.41;5007933;28;20503;-60
2022/01/10 05:35:54;;;;;;;33.70;9.82;;;;;;;-1.57;93.99;93510.09;5008754;28;20046;-61
2022/01/10 05:38:21;;;;;;;39.22;10.73;;;;;;;-1.51;93.48;93511.38;5009386;28;20471;-61
2022/01/10 05:40:48;;;;;;;45.83;13.20;;;;;;;-1.46;93.54;93513.81;5012226;28;20553;-60
2022/01/10 05:43:15;;;;;;;47.17;13.10;;;;;;;-1.45;93.50;93513.47;5011915;28;20058;-61
2022/01/10 05:45:43;;;;;;;45.60;11.90;;;;;;;-1.76;93.13;93527.72;5012054;28;20054;-61
2022/01/10 05:48:13;;;;;;;47.75;11.77;;;;;;;-1.85;93.90;93527.91;5012101;28;20062;-61
2022/01/10 05:50:42;;;;;;;51.42;13.45;;;;;;;-1.89;94.55;93535.09;5010620;28;20510;-61
2022/01/10 05:53:10;;;;;;;45.45;12.90;;;;;;;-1.71;94.79;93542.81;5012489;28;20097;-62
2022/01/10 05:55:38;;;;;;;43.63;12.82;;;;;;;-1.61;94.59;93550.38;5011701;28;20038;-61
2022/01/10 05:58:05;;;;;;;58.43;15.37;;;;;;;-1.51;94.51;93546.38;5011928;28;20072;-61
2022/01/10 06:00:34;;;;;;;63.67;14.52;;;;;;;-1.48;94.00;93554.53;5011599;28;20663;-60
2022/01/10 06:03:02;;;;;;;64.30;16.95;;;;;;;-1.58;94.34;93556.97;5012209;28;20065;-61
2022/01/10 06:05:31;;;;;;;66.72;15.43;;;;;;;-1.53;94.09;93559.41;5010941;28;20045;-61
2022/01/10 06:07:59;;;;;;;58.92;15.82;;;;;;;-1.49;93.88;93555.69;5011854;28;20046;-61
2022/01/10 06:10:26;;;;;;;48.30;13.20;;;;;;;-1.37;93.97;93570.16;5011087;28;20042;-61
2022/01/10 06:12:53;;;;;;;57.47;16.98;;;;;;;-1.47;94.10;93577.66;5011798;28;20046;-61
2022/01/10 06:15:21;;;;;;;47.95;13.00;;;;;;;-1.49;93.76;93577.22;5026559;28;20506;-62
2022/01/10 06:17:48;;;;;;;42.42;11.95;;;;;;;-1.37;93.87;93584.38;5011679;28;20479;-61
2022/01/10 06:20:15;;;;;;;31.30;10.10;;;;;;;-1.38;93.22;93585.53;5011575;28;20058;-62
2022/01/10 06:22:43;;;;;;;34.87;11.00;;;;;;;-1.33;93.22;93587.94;5010230;28;20067;-61
2022/01/10 06:25:14;;;;;;;32.25;9.63;;;;;;;-1.27;92.98;93594.66;5011897;28;20084;-61
2022/01/10 06:27:40;;;;;;;27.65;9.25;;;;;;;-1.28;92.86;93611.94;5008325;28;20061;-61
2022/01/10 06:30:08;;;;;;;31.00;9.30;;;;;;;-1.25;92.88;93615.81;5011540;28;20049;-61
2022/01/10 06:32:35;;;;;;;30.55;9.50;;;;;;;-1.24;92.39;93620.09;5010638;28;20049;-61
2022/01/10 06:35:02;;;;;;;29.27;9.40;;;;;;;-1.30;92.90;93624.94;5011064;28;20045;-62
2022/01/10 06:37:29;;;;;;;29.92;9.48;;;;;;;-1.29;92.66;93628.41;5009515;28;20539;-61
2022/01/10 06:39:56;;;;;;;28.63;9.65;;;;;;;-1.25;92.88;93632.78;5010083;28;20048;-61
2022/01/10 06:42:23;;;;;;;34.08;10.40;;;;;;;-1.24;92.97;93631.63;5011278;28;20125;-60
2022/01/10 06:44:50;;;;;;;37.90;10.52;;;;;;;-1.26;93.42;93636.59;5010311;28;20398;-60
2022/01/10 06:47:17;;;;;;;41.93;12.33;;;;;;;-1.27;92.57;93635.03;5009684;28;20049;-61
2022/01/10 06:49:44;;;;;;;46.13;13.18;;;;;;;-1.31;93.26;93641.44;5008747;28;20066;-60
2022/01/10 06:52:11;;;;;;;47.90;13.88;;;;;;;-1.26;93.05;93646.59;5011069;28;20053;-61
2022/01/10 06:54:38;;;;;;;45.20;13.23;;;;;;;-1.26;93.59;93647.34;5010564;28;20380;-61
2022/01/10 06:57:05;;;;;;;49.88;13.30;;;;;;;-1.19;93.11;93656.72;5011256;28;20351;-60
2022/01/10 06:59:32;;;;;;;45.70;12.80;;;;;;;-1.11;93.00;93661.16;5010197;28;20049;-60
2022/01/10 07:01:59;;;;;;;42.33;12.85;;;;;;;-1.16;92.70;93656.06;5011005;28;20056;-60
2022/01/10 07:04:27;;;;;;;44.72;14.13;;;;;;;-1.13;92.64;93666.13;5010151;28;20046;-59
2022/01/10 07:06:55;;;;;;;44.20;14.80;;;;;;;-1.12;93.05;93673.09;5010707;28;20052;-60
2022/01/10 07:09:21;;;;;;;37.88;14.30;;;;;;;-1.12;92.24;93679.25;5010605;28;20065;-60
2022/01/10 07:11:48;;;;;;;39.17;13.93;;;;;;;-1.14;92.81;93686.88;5010398;28;20046;-60
2022/01/10 07:14:17;;;;;;;32.80;11.88;;;;;;;-1.10;92.24;93690.44;5010277;28;20062;-61
2022/01/10 07:16:44;;;;;;;35.85;12.88;;;;;;;-1.09;92.37;93692.00;5010682;28;20045;-59
2022/01/10 07:19:11;;;;;;;30.30;11.68;;;;;;;-1.14;92.20;93700.34;5011060;28;20450;-59
2022/01/10 07:21:39;;;;;;;129.85;52.40;;;;;;;-1.09;92.25;93704.69;5005632;28;20054;-59
2022/01/10 07:24:07;;;;;;;44.77;16.93;;;;;;;-1.03;91.86;93700.59;5004191;28;20044;-60
2022/01/10 07:26:34;;;;;;;34.60;13.20;;;;;;;-1.07;91.89;93718.59;5008552;28;20096;-59
2022/01/10 07:29:03;;;;;;;36.15;13.60;;;;;;;-1.13;91.76;93717.28;5010111;28;20056;-60
2022/01/10 07:31:30;;;;;;;33.10;13.20;;;;;;;-1.11;91.95;93715.78;5008252;28;20042;-59
2022/01/10 07:33:57;;;;;;;38.00;15.90;;;;;;;-1.15;92.09;93727.63;5010132;28;20053;-59
2022/01/10 07:36:24;;;;;;;40.97;14.63;;;;;;;-1.10;91.74;93728.16;5009561;28;20042;-58
2022/01/10 07:38:51;;;;;;;34.17;13.43;;;;;;;-1.10;91.57;93735.44;5010665;28;20042;-60
2022/01/10 07:41:18;;;;;;;29.80;11.95;;;;;;;-1.14;91.58;93738.03;5008926;28;20495;-60
2022/01/10 07:43:44;;;;;;;30.05;10.50;;;;;;;-1.07;91.54;93746.28;5009517;28;20458;-60
2022/01/10 07:46:11;;;;;;;27.85;10.98;;;;;;;-1.03;91.43;93736.41;5010233;28;20042;-60
2022/01/10 07:48:42;;;;;;;27.77;10.67;;;;;;;-0.92;91.46;93747.44;5009393;28;20072;-61
2022/01/10 07:51:11;;;;;;;27.25;9.80;;;;;;;-0.82;91.34;93740.78;4990663;28;20088;-61
2022/01/10 07:53:40;;;;;;;25.10;10.23;;;;;;;-0.68;91.07;93748.44;5019719;28;20061;-61
2022/01/10 07:56:08;;;;;;;27.42;9.93;;;;;;;-0.57;90.71;93754.84;4989660;28;20052;-61
2022/01/10 07:58:35;;;;;;;36.05;13.50;;;;;;;-0.55;90.09;93752.56;5020094;28;20459;-61
2022/01/10 08:01:03;;;;;;;41.13;14.53;;;;;;;-0.53;89.72;93760.31;4988721;28;20042;-61
2022/01/10 08:03:30;;;;;;;44.20;15.75;;;;;;;-0.54;89.04;93762.25;4988840;28;20050;-60
2022/01/10 08:05:57;;;;;;;46.28;15.07;;;;;;;-0.38;88.65;93769.50;4994744;28;20420;-60
2022/01/10 08:08:23;;;;;;;28.25;11.63;;;;;;;-0.36;88.93;93769.94;5008973;28;20052;-61
2022/01/10 08:10:50;;;;;;;27.88;11.40;;;;;;;-0.45;89.15;93770.13;5008252;28;20906;-60
2022/01/10 08:13:17;;;;;;;30.40;10.17;;;;;;;-0.52;89.93;93778.06;5008881;28;20541;-61
2022/01/10 08:15:44;;;;;;;31.33;11.75;;;;;;;-0.73;90.83;93789.09;5009574;28;20080;-60
2022/01/10 08:18:12;;;;;;;33.97;12.77;;;;;;;-0.44;89.52;93782.50;5009698;28;20050;-60
2022/01/10 08:20:38;;;;;;;34.75;12.50;;;;;;;-0.30;89.36;93782.03;5006923;28;20053;-61
2022/01/10 08:23:10;;;;;;;30.73;11.48;;;;;;;-0.15;88.22;93794.72;5007524;28;20429;-61
2022/01/10 08:25:37;;;;;;;35.73;12.93;;;;;;;-0.26;88.31;93797.19;5008227;28;20100;-60
2022/01/10 08:28:04;;;;;;;34.30;12.57;;;;;;;-0.08;88.60;93800.28;5009056;28;20045;-61
2022/01/10 08:30:30;;;;;;;37.10;13.35;;;;;;;-0.18;88.51;93808.91;5008932;28;20053;-60
2022/01/10 08:32:57;;;;;;;33.78;12.85;;;;;;;-0.26;88.50;93815.28;5009159;28;20492;-60
2022/01/10 08:35:24;;;;;;;34.10;12.10;;;;;;;-0.24;88.85;93818.41;5007648;28;20056;-59
2022/01/10 08:37:51;;;;;;;32.40;11.60;;;;;;;0.05;88.36;93827.16;5008721;28;20042;-61
2022/01/10 08:40:18;;;;;;;27.77;10.75;;;;;;;0.26;86.58;93830.31;5008711;28;20046;-61
2022/01/10 08:42:45;;;;;;;31.35;11.45;;;;;;;0.32;87.87;93825.44;5008356;28;20041;-60
2022/01/10 08:45:12;;;;;;;30.90;10.90;;;;;;;0.46;86.11;93830.34;5009522;28;20042;-61
2022/01/10 08:47:39;;;;;;;28.60;11.38;;;;;;;0.70;85.32;93835.50;5006773;28;20044;-61
2022/01/10 08:50:09;;;;;;;29.17;11.30;;;;;;;0.41;86.01;93836.06;4989322;28;20050;-61
2022/01/10 08:52:37;;;;;;;27.85;11.80;;;;;;;0.65;84.27;93840.41;4989191;28;20041;-60
2022/01/10 08:55:04;;;;;;;32.50;13.13;;;;;;;0.59;85.85;93848.00;4989659;28;20064;-61
2022/01/10 08:57:31;;;;;;;30.67;12.73;;;;;;;0.67;85.47;93847.03;4989303;28;20097;-60
2022/01/10 08:59:58;;;;;;;32.50;12.93;;;;;;;0.87;85.64;93847.03;4989419;28;20073;-61
2022/01/10 09:02:25;;;;;;;28.73;12.20;;;;;;;0.71;84.58;93852.50;4988948;28;20050;-60
2022/01/10 09:04:52;;;;;;;31.00;12.70;;;;;;;0.89;85.98;93853.66;4989680;28;20484;-61
2022/01/10 09:07:19;;;;;;;28.33;12.70;;;;;;;1.29;83.88;93860.59;5006244;28;20038;-61
2022/01/10 09:09:46;;;;;;;31.73;12.40;;;;;;;0.98;85.44;93865.00;5008911;28;20077;-61
2022/01/10 09:12:15;;;;;;;30.52;11.70;;;;;;;1.11;84.43;93867.59;5008726;28;20050;-61
2022/01/10 09:14:41;;;;;;;27.57;11.20;;;;;;;1.45;81.73;93879.44;5008167;28;20381;-61
2022/01/10 09:17:08;;;;;;;27.02;10.90;;;;;;;1.73;80.81;93881.06;5009125;28;20053;-61
2022/01/10 09:19:35;;;;;;;30.00;10.38;;;;;;;1.54;81.56;93885.38;5008166;28;20053;-61
2022/01/10 09:22:02;;;;;;;26.70;10.10;;;;;;;1.52;82.41;93887.66;4998869;28;20048;-61
2022/01/10 09:24:29;;;;;;;28.92;10.68;;;;;;;1.58;81.26;93886.22;5008423;28;20054;-60
2022/01/10 09:26:56;;;;;;;26.13;10.50;;;;;;;0.80;83.61;93890.88;5008994;28;20037;-61
2022/01/10 09:29:24;;;;;;;30.73;11.35;;;;;;;0.15;87.01;93904.88;5008405;28;20214;-61
2022/01/10 09:31:51;;;;;;;28.85;10.30;;;;;;;0.67;86.37;93898.34;5008244;28;20048;-61
2022/01/10 09:34:18;;;;;;;30.17;11.38;;;;;;;0.84;85.17;93907.94;5008789;28;20054;-61
2022/01/10 09:36:45;;;;;;;35.63;13.65;;;;;;;0.66;85.57;93914.88;5008042;28;20053;-61
2022/01/10 09:39:13;;;;;;;26.63;10.23;;;;;;;0.16;87.35;93912.63;5008907;28;20061;-61
2022/01/10 09:41:41;;;;;;;25.67;10.70;;;;;;;0.12;87.60;93929.84;5006980;28;20057;-61
2022/01/10 09:44:07;;;;;;;26.92;10.70;;;;;;;0.75;86.24;93920.88;5008674;28;20052;-61
2022/01/10 09:46:35;;;;;;;35.55;12.20;;;;;;;1.09;85.14;93930.09;5008166;28;20050;-60
2022/01/10 09:49:03;;;;;;;27.75;10.50;;;;;;;0.88;84.32;93933.13;5008720;28;20030;-61
2022/01/10 09:51:32;;;;;;;24.13;10.37;;;;;;;1.15;84.39;93933.31;5007999;28;20457;-60
2022/01/10 09:54:02;;;;;;;27.58;10.82;;;;;;;1.35;84.35;93942.22;5008567;28;20050;-61
2022/01/10 09:56:30;;;;;;;27.45;10.80;;;;;;;1.59;83.29;93941.91;5008192;28;20410;-60
2022/01/10 09:58:58;;;;;;;24.23;9.80;;;;;;;1.56;83.07;93949.94;5008710;28;20038;-61
2022/01/10 10:01:28;;;;;;;24.95;10.35;;;;;;;1.72;81.45;93941.75;5008190;28;20073;-61
2022/01/10 10:04:02;;;;;;;25.93;10.57;;;;;;;1.69;82.09;93948.66;5008888;28;20053;-61
2022/01/10 10:06:32;;;;;;;25.85;11.07;;;;;;;1.07;83.02;93951.28;5008048;28;20048;-61
2022/01/10 10:09:00;;;;;;;32.13;13.60;;;;;;;0.86;85.47;93956.22;5008597;28;20479;-61
2022/01/10 10:11:39;;;;;;;31.50;12.70;;;;;;;1.13;84.73;93963.38;5008182;28;20384;-61
2022/01/10 10:14:08;;;;;;;28.50;12.70;;;;;;;1.42;83.91;93958.56;5008200;28;20065;-61
2022/01/10 10:16:39;;;;;;;30.90;13.10;;;;;;;1.05;84.64;93969.78;5007937;28;20056;-61
2022/01/10 10:19:06;;;;;;;27.75;13.07;;;;;;;1.22;85.32;93960.47;5008548;28;20046;-61
2022/01/10 10:21:34;;;;;;;25.20;12.02;;;;;;;0.85;85.29;93970.88;4999275;28;20469;-61
2022/01/10 10:24:04;;;;;;;31.20;12.75;;;;;;;1.22;84.57;93975.91;5008613;28;20057;-61
2022/01/10 10:26:31;;;;;;;25.90;12.05;;;;;;;1.28;84.15;93977.19;5011330;28;20062;-61
2022/01/10 10:28:59;;;;;;;26.73;11.80;;;;;;;1.47;84.12;93979.91;5011943;28;20037;-61
2022/01/10 10:31:43;;;;;;;33.83;15.43;;;;;;;1.52;82.39;93982.31;5011123;28;20050;-59
2022/01/10 10:34:12;;;;;;;30.10;12.40;;;;;;;1.93;81.24;93988.16;5011485;28;20042;-61
2022/01/10 10:36:39;;;;;;;27.20;12.10;;;;;;;2.09;80.11;93984.53;5010654;28;20048;-61
2022/01/10 10:39:10;;;;;;;26.98;12.80;;;;;;;2.17;80.51;93989.72;5011603;28;20053;-61
2022/01/10 10:41:38;;;;;;;25.13;11.97;;;;;;;2.11;79.08;93991.19;5011024;28;20478;-61
2022/01/10 10:44:06;;;;;;;29.92;12.27;;;;;;;1.97;79.99;93990.88;5011644;28;20054;-61
2022/01/10 10:46:33;;;;;;;27.30;12.48;;;;;;;1.94;79.40;93994.34;5011238;28;20073;-61
2022/01/10 10:49:04;;;;;;;29.30;12.07;;;;;;;1.82;81.68;93989.09;5011723;28;20049;-61
2022/01/10 10:51:36;;;;;;;29.25;13.43;;;;;;;2.14;81.62;93989.66;5009711;28;20049;-61
2022/01/10 10:54:06;;;;;;;29.43;12.40;;;;;;;2.43;81.03;93993.63;5011700;28;20050;-61
2022/01/10 10:56:35;;;;;;;29.95;12.18;;;;;;;2.71;79.68;93993.31;5009753;28;20048;-61
2022/01/10 10:59:05;;;;;;;28.45;12.73;;;;;;;2.30;77.55;93994.97;5011613;28;20159;-61
2022/01/10 11:01:32;;;;;;;36.42;17.35;;;;;;;2.19;78.32;94008.31;5011069;28;20057;-61
2022/01/10 11:03:59;;;;;;;33.38;14.55;;;;;;;1.89;79.65;94014.34;5043293;28;20048;-61
2022/01/10 11:06:29;;;;;;;30.90;14.73;;;;;;;1.92;79.42;94005.50;5025896;28;20072;-61
2022/01/10 11:08:57;;;;;;;32.78;13.95;;;;;;;1.65;81.50;94006.53;5011430;28;20034;-61
2022/01/10 11:11:24;;;;;;;33.10;14.25;;;;;;;2.48;80.24;94019.66;5011722;28;20099;-61
2022/01/10 11:13:55;;;;;;;26.90;12.80;;;;;;;2.42;80.19;94011.03;5009479;28;21934;-61
2022/01/10 11:16:25;;;;;;;31.30;13.32;;;;;;;3.34;77.64;94018.22;5011095;28;20058;-61
2022/01/10 11:18:52;;;;;;;27.30;12.60;;;;;;;3.64;75.93;94017.47;5010269;28;20072;-61
2022/01/10 11:21:19;;;;;;;29.70;13.90;;;;;;;3.72;76.24;94022.63;5011107;28;20050;-61
2022/01/10 11:23:46;;;;;;;42.85;18.50;;;;;;;3.96;75.24;94026.78;5010538;28;20048;-61
2022/01/10 11:26:14;;;;;;;44.42;19.05;;;;;;;4.25;73.76;94029.81;5011314;28;20052;-61
2022/01/10 11:28:52;;;;;;;42.15;18.77;;;;;;;4.31;72.65;94038.41;5010498;28;20399;-62
2022/01/10 11:31:25;;;;;;;24.83;11.93;;;;;;;4.13;72.27;94033.56;5011112;28;20133;-61
2022/01/10 11:33:54;;;;;;;28.25;13.00;;;;;;;3.55;73.96;94031.31;5010034;28;20050;-62
2022/01/10 11:36:24;;;;;;;26.00;11.60;;;;;;;2.87;76.22;94036.53;5010665;28;20054;-61